| time (UTC) | temp F | wind direction | speed knots | gust knots | rain 1hr in | rain 24hr in | rain mn in | humidity % | barometer mb |
| 20260510071523 | 69 | 117 | 1.7 | 3.5 | 0.00 | 0.00 | 0.00 | 92 | 1009.6 |
| 20260510070021 | 70 | 117 | 1.7 | 3.5 | 0.00 | 0.00 | 0.00 | 92 | 1009.7 |
| 20260510064519 | 70 | 117 | 1.7 | 5.2 | 0.00 | 0.00 | 0.00 | 91 | 1009.7 |
| 20260510063017 | 71 | 117 | 1.7 | 2.6 | 0.00 | 0.00 | 0.00 | 91 | 1009.7 |
| 20260510061515 | 71 | 117 | 1.7 | 3.5 | 0.00 | 0.00 | 0.00 | 90 | 1009.6 |
| 20260510060013 | 72 | 117 | 0.9 | 2.6 | 0.00 | 0.00 | 0.00 | 89 | 1009.4 |
| 20260510054511 | 72 | 117 | 0.0 | 1.7 | 0.00 | 0.00 | 0.00 | 90 | 1009.3 |
| 20260510053010 | 72 | 117 | 0.0 | 1.7 | 0.00 | 0.00 | 0.00 | 89 | 1009.3 |
| 20260510051507 | 73 | 118 | 0.9 | 2.6 | 0.00 | 0.00 | 0.00 | 88 | 1009.4 |
| 20260510050002 | 74 | 117 | 0.9 | 2.6 | 0.00 | 0.00 | 0.00 | 89 | 1009.2 |
| 20260510044637 | 74 | 117 | 0.9 | 1.7 | 0.00 | 0.00 | 0.00 | 88 | 1009.1 |
| 20260510043054 | 74 | 117 | 0.9 | 1.7 | 0.00 | 0.00 | 0.00 | 88 | 1009.1 |
| 20260510041547 | 74 | 117 | 0.9 | 1.7 | 0.00 | 0.00 | 0.00 | 88 | 1009.0 |
| 20260510040040 | 74 | 117 | 1.7 | 2.6 | 0.00 | 0.00 | 0.00 | 87 | 1008.9 |
| 20260510034536 | 74 | 117 | 1.7 | 2.6 | 0.00 | 0.00 | 0.00 | 87 | 1008.7 |
| 20260510033034 | 75 | 117 | 1.7 | 2.6 | 0.00 | 0.00 | 0.00 | 85 | 1008.6 |
| 20260510031537 | 76 | 117 | 1.7 | 3.5 | 0.00 | 0.00 | 0.00 | 84 | 1008.5 |
| 20260510030038 | 76 | 117 | 3.5 | 7.8 | 0.00 | 0.00 | 0.00 | 83 | 1008.3 |
| 20260510024537 | 78 | 123 | 1.7 | 3.5 | 0.00 | 0.00 | 0.00 | 80 | 1007.8 |
| 20260510023032 | 79 | 123 | 0.9 | 2.6 | 0.00 | 0.00 | 0.00 | 78 | 1007.7 |
| 20260510021533 | 80 | 123 | 0.9 | 3.5 | 0.00 | 0.00 | 0.00 | 77 | 1007.5 |
| 20260510020030 | 81 | 123 | 0.9 | 1.7 | 0.00 | 0.00 | 0.00 | 76 | 1007.1 |
| 20260510014527 | 81 | 123 | 0.0 | 0.0 | 0.00 | 0.00 | 0.00 | 76 | 1006.8 |
| 20260510013024 | 81 | 123 | 0.0 | 2.6 | 0.00 | 0.00 | 0.00 | 76 | 1006.7 |
| 20260510011516 | 81 | 123 | 1.7 | 2.6 | 0.00 | 0.00 | 0.00 | 77 | 1006.8 |
| 20260510010015 | 82 | 123 | 1.7 | 3.5 | 0.00 | 0.00 | 0.00 | 75 | 1006.7 |
| 20260510004507 | 83 | 123 | 1.7 | 5.2 | 0.00 | 0.00 | 0.00 | 73 | 1006.8 |
| 20260510003013 | 85 | 215 | 1.7 | 3.5 | 0.00 | 0.00 | 0.00 | 74 | 1006.8 |
| 20260510001605 | 85 | 215 | 0.9 | 2.6 | 0.00 | 0.00 | 0.00 | 72 | 1006.6 |
| 20260510000056 | 86 | 215 | 0.9 | 3.5 | 0.00 | 0.00 | 0.00 | 67 | 1006.3 |
| 20260509234604 | 87 | 216 | 1.7 | 5.2 | 0.00 | 0.00 | 0.00 | 64 | 1006.4 |
| 20260509233045 | 90 | 227 | 0.9 | 1.7 | 0.00 | 0.00 | 0.00 | 60 | 1006.2 |
| 20260509231541 | 91 | 227 | 0.9 | 2.6 | 0.00 | 0.00 | 0.00 | 56 | 1006.1 |
| 20260509230037 | 92 | 227 | 0.0 | 3.5 | 0.00 | 0.00 | 0.00 | 54 | 1006.1 |
| 20260509224538 | 90 | 227 | 1.7 | 4.3 | 0.00 | 0.00 | 0.00 | 58 | 1006.0 |
| 20260509223027 | 91 | 232 | 1.7 | 4.3 | 0.00 | 0.00 | 0.00 | 55 | 1006.1 |
| 20260509221526 | 91 | 261 | 2.6 | 5.2 | 0.00 | 0.00 | 0.00 | 55 | 1005.9 |
| 20260509220020 | 90 | 286 | 0.9 | 7.0 | 0.00 | 0.00 | 0.00 | 59 | 1005.8 |
| 20260509214514 | 89 | 305 | 2.6 | 7.8 | 0.00 | 0.00 | 0.00 | 59 | 1006.0 |
| 20260509213010 | 89 | 342 | 2.6 | 8.7 | 0.00 | 0.00 | 0.00 | 60 | 1006.5 |
| 20260509211504 | 89 | 355 | 3.5 | 7.8 | 0.00 | 0.00 | 0.00 | 60 | 1006.7 |
| 20260509210101 | 89 | 20 | 4.3 | 10.4 | 0.00 | 0.00 | 0.00 | 63 | 1006.8 |
| 20260509204601 | 88 | 294 | 4.3 | 9.6 | 0.00 | 0.00 | 0.00 | 61 | 1007.0 |
| 20260509203115 | 88 | 257 | 2.6 | 7.8 | 0.00 | 0.00 | 0.00 | 63 | 1007.1 |
| 20260509201549 | 88 | 286 | 4.3 | 7.8 | 0.00 | 0.00 | 0.00 | 66 | 1007.1 |
| 20260509200053 | 88 | 273 | 4.3 | 10.4 | 0.00 | 0.00 | 0.00 | 63 | 1007.2 |
| 20260509194540 | 88 | 306 | 5.2 | 8.7 | 0.00 | 0.00 | 0.00 | 65 | 1007.5 |
| 20260509193034 | 87 | 282 | 4.3 | 8.7 | 0.00 | 0.00 | 0.00 | 64 | 1007.9 |
| 20260509191532 | 87 | 295 | 2.6 | 8.7 | 0.00 | 0.00 | 0.00 | 67 | 1007.9 |
| 20260509190023 | 86 | 306 | 5.2 | 9.6 | 0.00 | 0.00 | 0.00 | 68 | 1008.1 |
| 20260509184526 | 85 | 302 | 1.7 | 7.0 | 0.00 | 0.00 | 0.00 | 72 | 1008.3 |
| 20260509183140 | 85 | 271 | 2.6 | 6.1 | 0.00 | 0.00 | 0.00 | 72 | 1008.5 |
| 20260509181510 | 84 | 307 | 5.2 | 7.8 | 0.00 | 0.00 | 0.00 | 76 | 1008.8 |
| 20260509180005 | 83 | 304 | 2.6 | 4.3 | 0.00 | 0.00 | 0.00 | 77 | 1009.1 |
| 20260509174502 | 82 | 308 | 2.6 | 6.1 | 0.00 | 0.00 | 0.00 | 79 | 1009.1 |
| 20260509173104 | 81 | 307 | 3.5 | 7.0 | 0.00 | 0.00 | 0.00 | 80 | 1009.3 |
| 20260509171553 | 81 | 286 | 2.6 | 7.0 | 0.00 | 0.00 | 0.00 | 81 | 1009.4 |
| 20260509170054 | 79 | 292 | 4.3 | 7.0 | 0.00 | 0.00 | 0.00 | 86 | 1009.5 |
| 20260509164557 | 77 | 262 | 2.6 | 6.1 | 0.00 | 0.00 | 0.00 | 90 | 1009.4 |
| 20260509163041 | 74 | 279 | 1.7 | 7.8 | 0.00 | 0.00 | 0.00 | 94 | 1009.5 |
| 20260509161538 | 74 | 284 | 1.7 | 4.3 | 0.00 | 0.00 | 0.00 | 95 | 1009.5 |
| 20260509160038 | 74 | 288 | 2.6 | 6.1 | 0.00 | 0.00 | 0.00 | 95 | 1009.4 |
| 20260509154536 | 74 | 290 | 2.6 | 4.3 | 0.00 | 0.00 | 0.00 | 95 | 1009.6 |
| 20260509153037 | 74 | 278 | 5.2 | 11.3 | 0.00 | 0.00 | 0.00 | 95 | 1009.5 |
| 20260509151535 | 74 | 233 | 1.7 | 4.3 | 0.00 | 0.00 | 0.00 | 95 | 1009.2 |
| 20260509150039 | 74 | 215 | 1.7 | 3.5 | 0.00 | 0.00 | 0.00 | 95 | 1009.1 |
| 20260509144539 | 74 | 215 | 0.9 | 3.5 | 0.00 | 0.00 | 0.00 | 95 | 1009.1 |
| 20260509143032 | 74 | 129 | 0.9 | 3.5 | 0.00 | 0.00 | 0.00 | 95 | 1009.5 |
| 20260509141527 | 74 | 129 | 0.9 | 2.6 | 0.00 | 0.00 | 0.00 | 95 | 1009.7 |
| 20260509140023 | 74 | 129 | 0.0 | 0.9 | 0.00 | 0.00 | 0.00 | 95 | 1009.1 |
| 20260509134519 | 74 | 128 | 1.7 | 6.1 | 0.00 | 0.00 | 0.00 | 95 | 1008.7 |
| 20260509133016 | 74 | 161 | 7.0 | 9.6 | 0.00 | 0.00 | 0.00 | 95 | 1008.1 |
| 20260509131511 | 73 | 38 | 1.7 | 4.3 | 0.00 | 0.00 | 0.00 | 95 | 1009.1 |
| 20260509130010 | 73 | 38 | 1.7 | 4.3 | 0.00 | 0.00 | 0.00 | 95 | 1010.0 |
| 20260509124509 | 73 | 52 | 0.0 | 2.6 | 0.00 | 0.00 | 0.00 | 95 | 1009.8 |
| 20260509123008 | 73 | 52 | 0.9 | 3.5 | 0.00 | 0.00 | 0.00 | 95 | 1009.7 |
| 20260509121507 | 73 | 52 | 1.7 | 3.5 | 0.00 | 0.00 | 0.00 | 95 | 1009.8 |
| 20260509120006 | 73 | 52 | 1.7 | 4.3 | 0.00 | 0.00 | 0.00 | 95 | 1009.8 |
| 20260509114505 | 73 | 54 | 1.7 | 2.6 | 0.00 | 0.00 | 0.00 | 95 | 1009.3 |
| 20260509113114 | 73 | 54 | 0.0 | 1.7 | 0.00 | 0.00 | 0.00 | 95 | 1008.6 |
| 20260509111601 | 73 | 53 | 0.9 | 2.6 | 0.00 | 0.00 | 0.00 | 95 | 1008.4 |
| 20260509110051 | 73 | 53 | 0.9 | 4.3 | 0.00 | 0.00 | 0.00 | 95 | 1008.4 |
| 20260509104547 | 73 | 42 | 1.7 | 4.3 | 0.00 | 0.00 | 0.00 | 95 | 1008.3 |
| 20260509103143 | 73 | 34 | 1.7 | 3.5 | 0.00 | 0.00 | 0.00 | 95 | 1009.0 |
| 20260509101540 | 73 | 34 | 1.7 | 3.5 | 0.00 | 0.00 | 0.00 | 95 | 1009.0 |
| 20260509100035 | 73 | 34 | 0.9 | 7.8 | 0.00 | 0.00 | 0.00 | 94 | 1008.6 |
| 20260509094529 | 73 | 321 | 7.8 | 11.3 | 0.00 | 0.00 | 0.00 | 94 | 1008.6 |
| 20260509093025 | 73 | 108 | 6.1 | 8.7 | 0.00 | 0.00 | 0.00 | 95 | 1007.0 |
| 20260509091521 | 73 | 134 | 4.3 | 7.0 | 0.00 | 0.00 | 0.00 | 94 | 1007.1 |
| 20260509090018 | 73 | 145 | 1.7 | 4.3 | 0.00 | 0.00 | 0.00 | 94 | 1008.0 |
| 20260509084616 | 73 | 145 | 1.7 | 4.3 | 0.00 | 0.00 | 0.00 | 94 | 1008.0 |
| 20260509083022 | 73 | 143 | 2.6 | 7.0 | 0.00 | 0.00 | 0.00 | 94 | 1008.1 |
| 20260509081515 | 73 | 140 | 1.7 | 3.5 | 0.00 | 0.00 | 0.00 | 94 | 1008.5 |
| 20260509080012 | 73 | 140 | 1.7 | 3.5 | 0.00 | 0.00 | 0.00 | 94 | 1008.3 |
| 20260509074512 | 73 | 140 | 1.7 | 4.3 | 0.00 | 0.00 | 0.00 | 94 | 1008.2 |
| 20260509073011 | 73 | 140 | 1.7 | 4.3 | 0.00 | 0.00 | 0.00 | 94 | 1008.3 |